createdAt,value
2019-03-22T00:00:37.458Z,8.80
2019-03-22T00:03:09.663Z,7.13
2019-03-22T00:05:40.186Z,7.50
2019-03-22T00:08:10.715Z,6.50
2019-03-22T00:10:41.258Z,7.03
2019-03-22T00:13:11.820Z,6.37
2019-03-22T00:15:42.390Z,6.03
2019-03-22T00:18:12.947Z,8.77
2019-03-22T00:20:43.445Z,6.93
2019-03-22T00:23:14.070Z,6.47
2019-03-22T00:25:44.646Z,6.10
2019-03-22T00:28:15.185Z,8.13
2019-03-22T00:30:45.681Z,6.33
2019-03-22T00:33:16.241Z,7.60
2019-03-22T00:35:46.745Z,5.60
2019-03-22T00:38:17.255Z,7.07
2019-03-22T00:40:47.758Z,6.70
2019-03-22T00:43:18.381Z,5.13
2019-03-22T00:45:48.882Z,7.53
2019-03-22T00:48:19.381Z,5.53
2019-03-22T00:50:49.950Z,6.73
2019-03-22T00:53:20.537Z,5.37
2019-03-22T00:55:51.134Z,6.13
2019-03-22T00:58:21.657Z,5.77
2019-03-22T01:00:52.498Z,5.97
2019-03-22T01:03:24.250Z,5.33
2019-03-22T01:05:54.751Z,6.40
2019-03-22T01:08:25.302Z,6.07
2019-03-22T01:10:55.773Z,6.50
2019-03-22T01:13:27.413Z,6.13
2019-03-22T01:15:57.909Z,5.50
2019-03-22T01:18:28.445Z,5.90
2019-03-22T01:21:00.022Z,7.10
2019-03-22T01:23:30.484Z,5.60
2019-03-22T01:26:00.956Z,5.43
2019-03-22T01:28:31.422Z,5.17
2019-03-22T01:31:01.892Z,5.77
2019-03-22T01:33:32.414Z,5.43
2019-03-22T01:36:02.891Z,5.13
2019-03-22T01:38:33.397Z,5.03
2019-03-22T01:41:03.871Z,4.73
2019-03-22T01:43:34.429Z,5.93
2019-03-22T01:46:04.909Z,5.17
2019-03-22T01:48:35.142Z,6.33
2019-03-22T01:51:05.425Z,5.53
2019-03-22T01:53:35.750Z,5.57
2019-03-22T01:56:06.103Z,5.67
2019-03-22T01:58:36.430Z,5.13
2019-03-22T02:01:06.648Z,5.73
2019-03-22T02:03:36.952Z,5.03
2019-03-22T02:06:07.253Z,5.53
2019-03-22T02:08:37.620Z,4.40
2019-03-22T02:11:07.845Z,6.80
2019-03-22T02:13:38.141Z,5.40
2019-03-22T02:16:08.494Z,5.13
2019-03-22T02:18:38.869Z,6.97
2019-03-22T02:21:09.216Z,5.20
2019-03-22T02:23:39.506Z,5.47
2019-03-22T02:26:09.877Z,5.43
2019-03-22T02:28:40.240Z,5.57
2019-03-22T02:31:10.563Z,5.43
2019-03-22T02:33:40.826Z,5.40
2019-03-22T02:36:11.153Z,4.97
2019-03-22T02:38:41.500Z,4.90
2019-03-22T02:41:11.944Z,6.33
2019-03-22T02:43:42.302Z,6.90
2019-03-22T02:46:12.670Z,5.23
2019-03-22T02:48:43.040Z,5.03
2019-03-22T02:51:13.374Z,5.83
2019-03-22T02:53:43.602Z,6.03
2019-03-22T02:56:14.179Z,5.13
2019-03-22T02:58:44.608Z,5.93
2019-03-22T03:01:14.970Z,5.40
2019-03-22T03:03:45.267Z,5.53
2019-03-22T03:06:15.566Z,4.77
2019-03-22T03:08:45.973Z,5.53
2019-03-22T03:11:16.346Z,4.83
2019-03-22T03:13:46.655Z,7.40
2019-03-22T03:16:16.869Z,5.57
2019-03-22T03:18:47.102Z,5.33
2019-03-22T03:21:17.410Z,4.77
2019-03-22T03:23:47.714Z,5.20
2019-03-22T03:26:18.155Z,5.30
2019-03-22T03:28:48.519Z,5.17
2019-03-22T03:31:19.830Z,4.23
2019-03-22T03:33:50.270Z,4.53
2019-03-22T03:36:21.599Z,4.60
2019-03-22T03:38:52.114Z,4.20
2019-03-22T03:41:22.333Z,4.47
2019-03-22T03:43:52.709Z,4.63
2019-03-22T03:46:23.170Z,5.13
2019-03-22T03:48:53.598Z,4.80
2019-03-22T03:51:23.898Z,4.53
2019-03-22T03:53:54.207Z,4.93
2019-03-22T03:56:24.565Z,5.00
2019-03-22T03:58:54.906Z,4.40
2019-03-22T04:01:26.338Z,5.17
2019-03-22T04:03:56.665Z,4.37
2019-03-22T04:06:27.034Z,5.80
2019-03-22T04:08:57.263Z,5.30
2019-03-22T04:11:27.662Z,5.23
2019-03-22T04:13:58.045Z,4.70
2019-03-22T04:16:28.626Z,4.90
2019-03-22T04:18:59.063Z,4.93
2019-03-22T04:21:29.427Z,6.13
2019-03-22T04:23:59.799Z,4.53
2019-03-22T04:26:30.019Z,5.87
2019-03-22T04:29:07.239Z,4.67
2019-03-22T04:31:32.353Z,5.23
2019-03-22T04:34:02.678Z,4.67
2019-03-22T04:36:33.110Z,5.20
2019-03-22T04:39:04.487Z,4.50
2019-03-22T04:41:34.705Z,4.63
2019-03-22T04:44:04.926Z,4.70
2019-03-22T04:46:35.241Z,5.30
2019-03-22T04:49:05.488Z,5.27
2019-03-22T04:51:35.856Z,5.43
2019-03-22T04:54:06.077Z,5.53
2019-03-22T04:56:36.986Z,5.10
2019-03-22T04:59:18.336Z,4.93
2019-03-22T05:01:39.563Z,4.40
2019-03-22T05:04:09.860Z,5.23
2019-03-22T05:06:40.162Z,5.77
2019-03-22T05:09:11.322Z,5.10
2019-03-22T05:11:42.633Z,4.33
2019-03-22T05:14:12.973Z,5.37
2019-03-22T05:16:43.201Z,5.90
2019-03-22T05:19:13.506Z,5.00
2019-03-22T05:21:43.958Z,5.97
2019-03-22T05:24:14.186Z,4.83
2019-03-22T05:26:44.497Z,5.60
2019-03-22T05:29:14.861Z,5.00
2019-03-22T05:32:07.491Z,5.07
2019-03-22T05:34:38.918Z,4.97
2019-03-22T05:37:09.207Z,5.90
2019-03-22T05:39:39.515Z,4.73
2019-03-22T05:42:09.805Z,4.43
2019-03-22T05:44:40.094Z,6.53
2019-03-22T05:47:10.384Z,4.87
2019-03-22T05:49:40.781Z,5.57
2019-03-22T05:52:11.178Z,5.13
2019-03-22T05:54:41.550Z,4.63
2019-03-22T05:57:13.514Z,5.17
2019-03-22T05:59:44.094Z,5.77
2019-03-22T06:02:14.383Z,5.03
2019-03-22T06:04:44.610Z,5.43
2019-03-22T06:07:14.862Z,4.50
2019-03-22T06:09:45.144Z,5.43
2019-03-22T06:12:15.441Z,5.70
2019-03-22T06:14:45.936Z,4.83
2019-03-22T06:17:16.297Z,4.00
2019-03-22T06:19:46.506Z,5.47
2019-03-22T06:22:16.735Z,5.83
2019-03-22T06:24:47.097Z,5.13
2019-03-22T06:27:17.585Z,5.23
2019-03-22T06:29:54.280Z,4.70
2019-03-22T06:32:19.895Z,4.90
2019-03-22T06:34:50.141Z,5.87
2019-03-22T06:37:20.450Z,5.87
2019-03-22T06:39:50.771Z,7.73
2019-03-22T06:42:21.145Z,6.70
2019-03-22T06:44:51.465Z,4.87
2019-03-22T06:47:21.906Z,5.50
2019-03-22T06:49:52.217Z,4.73
2019-03-22T06:52:22.491Z,6.93
2019-03-22T06:54:52.873Z,6.73
2019-03-22T06:57:23.202Z,6.50
2019-03-22T07:00:05.540Z,8.10
2019-03-22T07:02:25.657Z,5.53
2019-03-22T07:04:56.198Z,8.00
2019-03-22T07:07:26.579Z,10.23
2019-03-22T07:09:56.920Z,9.07
2019-03-22T07:12:27.410Z,8.50
2019-03-22T07:14:57.717Z,11.17
2019-03-22T07:17:28.070Z,10.20
2019-03-22T07:19:58.462Z,9.10
2019-03-22T07:22:28.764Z,13.90
2019-03-22T07:24:59.139Z,10.20
2019-03-22T07:27:29.562Z,8.07
2019-03-22T07:29:59.857Z,11.50
2019-03-22T07:32:31.450Z,10.90
2019-03-22T07:35:01.682Z,10.57
2019-03-22T07:37:32.510Z,12.43
2019-03-22T07:40:02.818Z,11.40
2019-03-22T07:42:33.073Z,11.40
2019-03-22T07:45:03.480Z,14.17
2019-03-22T07:47:33.868Z,11.13
2019-03-22T07:50:04.586Z,11.53
2019-03-22T07:52:35.950Z,8.80
2019-03-22T07:55:06.903Z,11.87
2019-03-22T07:57:37.142Z,12.23
2019-03-22T08:00:07.750Z,9.83
2019-03-22T08:02:38.024Z,12.43
2019-03-22T08:05:08.414Z,12.97
2019-03-22T08:07:38.859Z,9.90
2019-03-22T08:10:09.447Z,12.30
2019-03-22T08:12:40.189Z,7.87
2019-03-22T08:15:10.572Z,8.40
2019-03-22T08:17:41.038Z,8.37
2019-03-22T08:20:11.446Z,10.03
2019-03-22T08:22:41.793Z,10.13
2019-03-22T08:25:12.173Z,9.73
2019-03-22T08:27:42.562Z,9.20
2019-03-22T08:30:12.899Z,9.60
2019-03-22T08:32:43.723Z,11.87
2019-03-22T08:35:14.067Z,13.80
2019-03-22T08:37:52.592Z,12.47
2019-03-22T08:40:16.313Z,11.37
2019-03-22T08:42:46.629Z,10.97
2019-03-22T08:45:17.040Z,12.00
2019-03-22T08:47:47.354Z,8.97
2019-03-22T08:50:17.793Z,11.63
2019-03-22T08:52:48.180Z,11.27
2019-03-22T08:55:18.608Z,11.17
2019-03-22T08:57:48.952Z,6.90
2019-03-22T09:00:19.341Z,8.33
2019-03-22T09:02:49.917Z,11.50
2019-03-22T09:05:20.329Z,10.13
2019-03-22T09:07:50.744Z,6.23
2019-03-22T09:10:21.057Z,9.57
2019-03-22T09:12:51.434Z,9.57
2019-03-22T09:15:21.838Z,8.03
2019-03-22T09:17:52.204Z,7.50
2019-03-22T09:20:22.506Z,7.23
2019-03-22T09:22:52.998Z,10.53
2019-03-22T09:25:23.454Z,10.03
2019-03-22T09:27:53.784Z,11.70
2019-03-22T09:30:24.360Z,8.37
2019-03-22T09:32:54.634Z,6.60
2019-03-22T09:35:25.041Z,7.57
2019-03-22T09:37:55.354Z,9.87
2019-03-22T09:40:25.685Z,9.40
2019-03-22T09:42:56.244Z,8.30
2019-03-22T09:45:26.570Z,7.90
2019-03-22T09:47:56.988Z,7.93
2019-03-22T09:50:27.345Z,10.43
2019-03-22T09:52:57.845Z,9.97
2019-03-22T09:55:28.288Z,8.07
2019-03-22T09:57:58.595Z,7.30
2019-03-22T10:00:33.697Z,9.57
2019-03-22T10:03:04.205Z,10.90
2019-03-22T10:05:34.614Z,9.50
2019-03-22T10:08:05.179Z,8.87
2019-03-22T10:10:35.560Z,7.93
2019-03-22T10:13:05.913Z,8.60
2019-03-22T10:15:36.334Z,9.90
2019-03-22T10:18:07.077Z,11.27
2019-03-22T10:20:37.595Z,8.07
2019-03-22T10:23:07.975Z,8.73
2019-03-22T10:25:38.378Z,10.37
2019-03-22T10:28:08.678Z,10.47
2019-03-22T10:30:39.140Z,10.33
2019-03-22T10:33:21.742Z,11.30
2019-03-22T10:35:41.954Z,11.03
2019-03-22T10:38:16.441Z,8.60
2019-03-22T10:40:44.389Z,11.67
2019-03-22T10:43:14.686Z,9.97
2019-03-22T10:45:45.154Z,7.93
2019-03-22T10:48:15.606Z,9.07
2019-03-22T10:50:45.974Z,7.87
2019-03-22T10:53:16.366Z,10.17
2019-03-22T10:55:46.741Z,10.63
2019-03-22T10:58:21.255Z,10.10
2019-03-22T11:00:49.207Z,13.20
2019-03-22T11:03:19.581Z,9.23
2019-03-22T11:05:49.997Z,9.20
2019-03-22T11:08:20.445Z,8.63
2019-03-22T11:10:50.811Z,14.57
2019-03-22T11:13:21.049Z,8.67
2019-03-22T11:15:51.496Z,8.67
2019-03-22T11:18:21.744Z,10.37
2019-03-22T11:20:52.120Z,8.90
2019-03-22T11:23:22.502Z,10.07
2019-03-22T11:25:52.903Z,7.83
2019-03-22T11:28:23.207Z,10.27
2019-03-22T11:30:53.639Z,9.23
2019-03-22T11:33:24.014Z,9.73
2019-03-22T11:35:54.258Z,7.60
2019-03-22T11:38:24.634Z,10.30
2019-03-22T11:40:54.957Z,10.07
2019-03-22T11:43:25.670Z,9.43
2019-03-22T11:45:56.177Z,9.40
2019-03-22T11:48:26.481Z,10.00
2019-03-22T11:50:56.721Z,8.97
2019-03-22T11:53:27.034Z,11.27
2019-03-22T11:55:57.366Z,9.40
2019-03-22T11:58:27.616Z,13.83
2019-03-22T12:00:57.993Z,15.17
2019-03-22T12:03:28.398Z,24.00
2019-03-22T12:05:58.758Z,23.67
2019-03-22T12:08:29.176Z,16.40
2019-03-22T12:10:59.494Z,15.97
2019-03-22T12:13:29.809Z,16.43
2019-03-22T12:16:00.069Z,17.90
2019-03-22T12:18:30.297Z,15.53
2019-03-22T12:21:00.711Z,13.93
2019-03-22T12:23:31.025Z,14.37
2019-03-22T12:26:01.326Z,20.60
2019-03-22T12:28:31.674Z,15.63
2019-03-22T12:31:02.317Z,12.40
2019-03-22T12:33:33.819Z,11.60
2019-03-22T12:36:05.194Z,13.67
2019-03-22T12:38:35.426Z,12.07
2019-03-22T12:41:05.756Z,13.77
2019-03-22T12:43:36.057Z,12.63
2019-03-22T12:46:06.369Z,12.20
2019-03-22T12:48:36.816Z,11.30
2019-03-22T12:51:07.134Z,13.33
2019-03-22T12:53:37.567Z,10.17
2019-03-22T12:56:07.947Z,11.80
2019-03-22T12:58:38.430Z,13.40
2019-03-22T13:01:10.291Z,12.57
2019-03-22T13:03:40.627Z,12.97
2019-03-22T13:06:10.849Z,10.37
2019-03-22T13:08:41.072Z,9.53
2019-03-22T13:11:11.398Z,10.93
2019-03-22T13:13:41.686Z,9.87
2019-03-22T13:16:12.070Z,10.97
2019-03-22T13:18:49.812Z,10.50
2019-03-22T13:21:14.533Z,10.17
2019-03-22T13:23:44.906Z,9.30
2019-03-22T13:26:15.299Z,9.70
2019-03-22T13:28:45.668Z,9.10
2019-03-22T13:31:15.961Z,11.57
2019-03-22T13:33:46.427Z,12.93
2019-03-22T13:36:17.153Z,12.63
2019-03-22T13:38:47.649Z,9.17
2019-03-22T13:41:18.863Z,9.80
2019-03-22T13:43:49.161Z,8.57
2019-03-22T13:46:19.606Z,9.63
2019-03-22T13:48:49.901Z,7.50
2019-03-22T13:51:20.276Z,8.97
2019-03-22T13:53:50.721Z,8.30
2019-03-22T13:56:21.153Z,8.17
2019-03-22T13:58:51.615Z,8.03
2019-03-22T14:01:21.899Z,9.87
2019-03-22T14:03:52.147Z,10.60
2019-03-22T14:06:22.625Z,10.90
2019-03-22T14:08:53.025Z,7.27
2019-03-22T14:11:24.386Z,8.03
2019-03-22T14:13:54.752Z,6.23
2019-03-22T14:16:25.531Z,8.33
2019-03-22T14:18:55.826Z,8.57
2019-03-22T14:21:26.283Z,10.27
2019-03-22T14:23:56.526Z,8.90
2019-03-22T14:26:26.826Z,5.93
2019-03-22T14:28:57.197Z,8.00
2019-03-22T14:31:27.580Z,6.63
2019-03-22T14:33:58.178Z,7.47
2019-03-22T14:36:28.624Z,7.63
2019-03-22T14:38:58.856Z,7.40
2019-03-22T14:41:29.175Z,8.73
2019-03-22T14:43:59.537Z,6.23
2019-03-22T14:46:30.013Z,6.40
2019-03-22T14:49:00.327Z,7.70
2019-03-22T14:51:30.549Z,9.60
2019-03-22T14:54:00.925Z,9.43
2019-03-22T14:56:31.326Z,7.43
2019-03-22T14:59:01.647Z,9.27
2019-03-22T15:01:31.954Z,6.27
2019-03-22T15:04:02.315Z,5.03
2019-03-22T15:06:32.541Z,6.23
2019-03-22T15:09:04.395Z,7.63
2019-03-22T15:11:34.850Z,5.87
2019-03-22T15:14:16.958Z,6.97
2019-03-22T15:17:09.149Z,6.90
2019-03-22T15:19:55.286Z,8.13
2019-03-22T15:22:53.625Z,5.87
2019-03-22T15:26:01.086Z,6.37
2019-03-22T15:28:59.361Z,5.97
2019-03-22T15:31:48.694Z,7.33
2019-03-22T15:34:40.639Z,8.33
2019-03-22T15:37:32.009Z,6.30
2019-03-22T15:40:04.459Z,9.83
2019-03-22T15:42:35.311Z,6.97
2019-03-22T15:45:07.281Z,5.87
2019-03-22T15:47:37.681Z,8.17
2019-03-22T15:50:09.178Z,6.83
2019-03-22T15:52:39.398Z,5.53
2019-03-22T15:55:10.758Z,5.03
2019-03-22T15:57:40.977Z,6.57
2019-03-22T16:00:14.070Z,7.77
2019-03-22T16:02:44.441Z,5.17
2019-03-22T16:05:14.779Z,5.97
2019-03-22T16:07:44.997Z,5.30
2019-03-22T16:10:15.306Z,7.23
2019-03-22T16:12:45.525Z,6.13
2019-03-22T16:15:15.853Z,5.43
2019-03-22T16:17:47.062Z,5.57
2019-03-22T16:20:17.378Z,7.27
2019-03-22T16:22:47.746Z,6.57
2019-03-22T16:25:18.114Z,5.80
2019-03-22T16:27:48.521Z,5.07
2019-03-22T16:30:18.861Z,6.00
2019-03-22T16:32:49.305Z,6.03
2019-03-22T16:35:19.792Z,5.50
2019-03-22T16:37:50.162Z,6.93
2019-03-22T16:40:24.494Z,6.43
2019-03-22T16:42:52.597Z,7.47
2019-03-22T16:45:37.114Z,4.50
2019-03-22T16:48:07.406Z,6.23
2019-03-22T16:50:37.774Z,4.70
2019-03-22T16:53:08.086Z,5.30
2019-03-22T16:55:38.454Z,5.13
2019-03-22T16:58:08.758Z,5.97
2019-03-22T17:00:39.234Z,6.63
2019-03-22T17:03:09.473Z,6.17
2019-03-22T17:05:39.838Z,4.03
2019-03-22T17:08:10.145Z,4.50
2019-03-22T17:10:40.442Z,4.37
2019-03-22T17:13:10.817Z,5.33
2019-03-22T17:15:41.133Z,6.80
2019-03-22T17:18:11.453Z,6.13
2019-03-22T17:20:41.668Z,8.27
2019-03-22T17:23:11.973Z,6.03
2019-03-22T17:25:42.282Z,7.33
2019-03-22T17:28:12.829Z,7.77
2019-03-22T17:30:43.249Z,7.50
2019-03-22T17:33:13.651Z,8.40
2019-03-22T17:35:44.122Z,7.60
2019-03-22T17:38:14.504Z,7.03
2019-03-22T17:40:44.886Z,8.47
2019-03-22T17:43:15.266Z,5.93
2019-03-22T17:45:45.489Z,7.43
2019-03-22T17:48:15.721Z,5.50
2019-03-22T17:50:46.135Z,14.87
2019-03-22T17:53:16.526Z,13.67
2019-03-22T17:55:46.852Z,12.00
2019-03-22T17:58:17.234Z,14.97
2019-03-22T18:00:47.956Z,8.90
2019-03-22T18:03:18.504Z,8.57
2019-03-22T18:05:48.820Z,25.90
2019-03-22T18:08:19.194Z,10.67
2019-03-22T18:10:49.621Z,10.67
2019-03-22T18:13:20.083Z,12.67
2019-03-22T18:15:50.558Z,10.27
2019-03-22T18:18:20.905Z,9.13
2019-03-22T18:20:51.257Z,9.20
2019-03-22T18:23:21.633Z,13.67
2019-03-22T18:25:51.992Z,10.87
2019-03-22T18:28:22.509Z,10.73
2019-03-22T18:30:54.364Z,10.90
2019-03-22T18:33:24.680Z,14.57
2019-03-22T18:35:54.985Z,13.70
2019-03-22T18:38:25.376Z,13.00
2019-03-22T18:40:55.762Z,16.83
2019-03-22T18:43:25.991Z,12.97
2019-03-22T18:45:58.519Z,10.90
2019-03-22T18:48:28.913Z,16.10
2019-03-22T18:50:59.295Z,18.70
2019-03-22T18:53:29.629Z,10.60
2019-03-22T18:55:59.886Z,9.37
2019-03-22T18:58:30.320Z,12.73
2019-03-22T19:01:00.626Z,11.83
2019-03-22T19:03:31.060Z,13.00
2019-03-22T19:06:01.453Z,14.43
2019-03-22T19:08:31.988Z,11.87
2019-03-22T19:11:02.450Z,12.97
2019-03-22T19:13:32.684Z,13.77
2019-03-22T19:16:03.153Z,13.53
2019-03-22T19:18:33.734Z,11.83
2019-03-22T19:21:05.186Z,14.30
2019-03-22T19:23:35.631Z,13.27
2019-03-22T19:26:06.039Z,11.87
2019-03-22T19:28:36.390Z,12.40
2019-03-22T19:31:06.724Z,17.50
2019-03-22T19:33:37.110Z,15.57
2019-03-22T19:36:07.550Z,14.10
2019-03-22T19:38:37.930Z,17.53
2019-03-22T19:41:08.203Z,20.30
2019-03-22T19:43:39.645Z,19.47
2019-03-22T19:46:11.031Z,17.70
2019-03-22T19:48:41.280Z,17.03
2019-03-22T19:51:11.526Z,25.73
2019-03-22T19:53:41.763Z,22.83
2019-03-22T19:56:12.077Z,21.33
2019-03-22T19:58:42.410Z,21.83
2019-03-22T20:01:12.718Z,21.97
2019-03-22T20:03:43.036Z,25.47
2019-03-22T20:06:13.430Z,26.43
2019-03-22T20:08:43.730Z,23.83
2019-03-22T20:11:13.958Z,30.07
2019-03-22T20:13:44.337Z,27.13
2019-03-22T20:16:14.645Z,25.33
2019-03-22T20:18:45.011Z,25.63
2019-03-22T20:21:15.618Z,29.43
2019-03-22T20:23:53.486Z,28.07
2019-03-22T20:26:19.084Z,28.43
2019-03-22T20:28:49.623Z,28.87
2019-03-22T20:31:20.002Z,27.67
2019-03-22T20:33:50.321Z,34.00
2019-03-22T20:36:20.617Z,33.53
2019-03-22T20:38:50.974Z,34.90
2019-03-22T20:41:21.277Z,28.10
2019-03-22T20:43:51.654Z,30.03
2019-03-22T20:46:22.148Z,29.73
2019-03-22T20:48:52.642Z,27.03
2019-03-22T20:51:22.970Z,31.20
2019-03-22T20:53:53.346Z,34.20
2019-03-22T20:56:23.761Z,31.37
2019-03-22T20:58:54.135Z,32.33
2019-03-22T21:01:24.466Z,32.37
2019-03-22T21:03:54.790Z,32.70
2019-03-22T21:06:25.387Z,30.90
2019-03-22T21:08:55.822Z,29.17
2019-03-22T21:11:26.286Z,29.43
2019-03-22T21:13:56.679Z,30.87
2019-03-22T21:16:27.074Z,32.33
2019-03-22T21:18:57.402Z,33.20
2019-03-22T21:21:35.961Z,31.10
2019-03-22T21:23:59.798Z,31.27
2019-03-22T21:26:30.202Z,29.93
2019-03-22T21:29:00.514Z,35.47
2019-03-22T21:31:30.826Z,33.07
2019-03-22T21:34:01.255Z,34.83
2019-03-22T21:36:32.594Z,37.17
2019-03-22T21:39:04.007Z,37.37
2019-03-22T21:41:34.471Z,34.97
2019-03-22T21:44:04.882Z,33.60
2019-03-22T21:46:35.301Z,36.40
2019-03-22T21:49:05.862Z,38.53
2019-03-22T21:51:36.122Z,35.50
2019-03-22T21:54:06.428Z,33.20
2019-03-22T21:56:36.904Z,36.03
2019-03-22T21:59:07.289Z,36.43
2019-03-22T22:01:37.595Z,34.80
2019-03-22T22:04:07.981Z,37.23
2019-03-22T22:06:38.368Z,35.97
2019-03-22T22:09:08.657Z,35.47
2019-03-22T22:11:38.986Z,37.57
2019-03-22T22:14:09.300Z,35.93
2019-03-22T22:16:39.636Z,35.90
2019-03-22T22:19:09.954Z,40.23
2019-03-22T22:21:40.288Z,38.53
2019-03-22T22:24:10.584Z,40.23
2019-03-22T22:26:41.006Z,40.73
2019-03-22T22:29:11.497Z,39.27
2019-03-22T22:31:41.899Z,39.83
2019-03-22T22:34:12.280Z,41.47
2019-03-22T22:36:42.593Z,38.20
2019-03-22T22:39:12.977Z,38.93
2019-03-22T22:41:43.306Z,39.27
2019-03-22T22:44:14.733Z,41.23
2019-03-22T22:46:45.107Z,41.90
2019-03-22T22:49:15.482Z,39.77
2019-03-22T22:51:45.795Z,40.83
2019-03-22T22:54:16.109Z,40.73
2019-03-22T22:56:46.405Z,39.17
2019-03-22T22:59:18.774Z,39.53
2019-03-22T23:01:48.887Z,40.33
2019-03-22T23:04:19.361Z,41.33
2019-03-22T23:06:49.873Z,42.77
2019-03-22T23:09:20.361Z,40.67
2019-03-22T23:11:50.822Z,43.83
2019-03-22T23:14:21.166Z,41.80
2019-03-22T23:16:51.480Z,42.07
2019-03-22T23:19:21.789Z,39.83
2019-03-22T23:21:52.057Z,38.13
2019-03-22T23:24:22.293Z,40.27
2019-03-22T23:26:52.713Z,39.10
2019-03-22T23:29:23.152Z,39.40
2019-03-22T23:31:53.509Z,41.07
2019-03-22T23:34:23.828Z,38.73
2019-03-22T23:36:54.090Z,39.63
2019-03-22T23:39:24.326Z,39.13
2019-03-22T23:41:54.680Z,41.67
2019-03-22T23:44:24.989Z,39.90
2019-03-22T23:46:55.499Z,37.67
2019-03-22T23:49:25.790Z,38.90
2019-03-22T23:51:56.121Z,37.27
2019-03-22T23:54:26.493Z,37.93
2019-03-22T23:56:56.734Z,36.40
2019-03-22T23:59:27.875Z,36.73
